createdAt,value
2023-04-19T00:01:02.041Z,98456.81
2023-04-19T00:02:03.868Z,98446.66
2023-04-19T00:03:09.414Z,98451.53
2023-04-19T00:04:11.511Z,98446.66
2023-04-19T00:05:13.878Z,98444.09
2023-04-19T00:06:16.147Z,98440.84
2023-04-19T00:07:18.664Z,98445.13
2023-04-19T00:08:20.540Z,98442.72
2023-04-19T00:09:25.471Z,98431.56
2023-04-19T00:10:27.304Z,98435.00
2023-04-19T00:11:29.027Z,98430.97
2023-04-19T00:12:30.746Z,98428.34
2023-04-19T00:13:32.427Z,98421.88
2023-04-19T00:14:34.173Z,98424.59
2023-04-19T00:15:35.908Z,98419.53
2023-04-19T00:16:37.658Z,98427.47
2023-04-19T00:17:39.533Z,98419.59
2023-04-19T00:18:41.933Z,98417.63
2023-04-19T00:19:44.667Z,98421.75
2023-04-19T00:20:46.746Z,98422.53
2023-04-19T00:21:48.486Z,98398.84
2023-04-19T00:22:50.271Z,98424.16
2023-04-19T00:23:52.202Z,98418.50
2023-04-19T00:24:54.159Z,98416.09
2023-04-19T00:25:55.859Z,98402.97
2023-04-19T00:26:57.589Z,98413.44
2023-04-19T00:27:59.299Z,98415.75
2023-04-19T00:29:01.040Z,98400.31
2023-04-19T00:30:02.802Z,98419.97
2023-04-19T00:31:04.619Z,98413.09
2023-04-19T00:32:06.328Z,98414.94
2023-04-19T00:33:13.172Z,98410.28
2023-04-19T00:34:15.250Z,98407.22
2023-04-19T00:35:17.277Z,98415.16
2023-04-19T00:36:18.966Z,98407.00
2023-04-19T00:37:20.933Z,98406.03
2023-04-19T00:38:22.719Z,98411.53
2023-04-19T00:39:24.467Z,98405.00
2023-04-19T00:40:26.363Z,98403.63
2023-04-19T00:41:28.070Z,98402.00
2023-04-19T00:42:29.756Z,98397.97
2023-04-19T00:43:31.529Z,98409.13
2023-04-19T00:44:33.272Z,98407.50
2023-04-19T00:45:36.663Z,98402.09
2023-04-19T00:46:38.973Z,98410.13
2023-04-19T00:47:41.597Z,98403.91
2023-04-19T00:48:43.459Z,98399.56
2023-04-19T00:49:45.334Z,98407.88
2023-04-19T00:50:47.278Z,98415.59
2023-04-19T00:51:50.463Z,98405.81
2023-04-19T00:52:55.634Z,98403.84
2023-04-19T00:53:58.461Z,98409.50
2023-04-19T00:55:00.541Z,98410.09
2023-04-19T00:56:05.565Z,98404.28
2023-04-19T00:57:07.269Z,98405.44
2023-04-19T00:58:09.677Z,98404.22
2023-04-19T00:59:12.136Z,98408.25
2023-04-19T01:00:15.188Z,98404.59
2023-04-19T01:01:17.052Z,98392.84
2023-04-19T01:02:18.837Z,98404.59
2023-04-19T01:03:20.800Z,98402.53
2023-04-19T01:04:23.261Z,98399.72
2023-04-19T01:05:25.060Z,98401.34
2023-04-19T01:06:30.312Z,98397.69
2023-04-19T01:07:34.167Z,98392.84
2023-04-19T01:08:35.965Z,98400.53
2023-04-19T01:09:41.286Z,98388.44
2023-04-19T01:10:43.029Z,98397.91
2023-04-19T01:11:44.764Z,98389.16
2023-04-19T01:12:46.476Z,98398.06
2023-04-19T01:13:48.166Z,98396.19
2023-04-19T01:14:50.631Z,98396.34
2023-04-19T01:15:52.364Z,98395.91
2023-04-19T01:16:54.361Z,98392.84
2023-04-19T01:17:57.027Z,98391.81
2023-04-19T01:18:58.920Z,98400.88
2023-04-19T01:20:08.831Z,98380.19
2023-04-19T01:21:10.843Z,98390.47
2023-04-19T01:22:19.379Z,98392.09
2023-04-19T01:23:21.427Z,98373.00
2023-04-19T01:24:23.176Z,98387.94
2023-04-19T01:25:24.891Z,98389.13
2023-04-19T01:26:26.857Z,98389.13
2023-04-19T01:27:28.622Z,98389.72
2023-04-19T01:28:30.407Z,98388.09
2023-04-19T01:29:32.177Z,98381.78
2023-04-19T01:30:35.508Z,98383.53
2023-04-19T01:31:37.301Z,98388.00
2023-04-19T01:32:39.140Z,98380.66
2023-04-19T01:33:40.883Z,98375.38
2023-04-19T01:34:43.034Z,98382.88
2023-04-19T01:35:44.818Z,98377.00
2023-04-19T01:36:46.536Z,98382.28
2023-04-19T01:37:48.325Z,98377.44
2023-04-19T01:38:50.135Z,98376.50
2023-04-19T01:39:51.932Z,98378.72
2023-04-19T01:40:53.733Z,98378.13
2023-04-19T01:41:55.532Z,98379.16
2023-04-19T01:42:57.239Z,98376.50
2023-04-19T01:43:58.976Z,98372.47
2023-04-19T01:45:00.888Z,98380.19
2023-04-19T01:46:02.587Z,98373.28
2023-04-19T01:47:05.446Z,98371.28
2023-04-19T01:48:07.613Z,98376.13
2023-04-19T01:49:09.733Z,98373.72
2023-04-19T01:50:11.561Z,98367.41
2023-04-19T01:51:13.357Z,98371.06
2023-04-19T01:52:15.061Z,98362.22
2023-04-19T01:53:16.760Z,98363.47
2023-04-19T01:54:18.491Z,98374.63
2023-04-19T01:55:20.314Z,98376.44
2023-04-19T01:56:22.139Z,98366.69
2023-04-19T01:57:23.857Z,98364.50
2023-04-19T01:58:25.538Z,98366.09
2023-04-19T01:59:27.286Z,98367.13
2023-04-19T02:00:29.184Z,98361.25
2023-04-19T02:01:31.024Z,98359.06
2023-04-19T02:02:32.839Z,98359.66
2023-04-19T02:03:34.650Z,98363.69
2023-04-19T02:04:37.531Z,98361.84
2023-04-19T02:05:40.128Z,98359.44
2023-04-19T02:06:41.860Z,98363.69
2023-04-19T02:07:43.676Z,98366.09
2023-04-19T02:08:45.437Z,98359.00
2023-04-19T02:09:47.125Z,98362.44
2023-04-19T02:10:48.817Z,98364.84
2023-04-19T02:11:50.548Z,98355.53
2023-04-19T02:12:52.240Z,98362.22
2023-04-19T02:13:53.941Z,98355.91
2023-04-19T02:14:59.654Z,98352.47
2023-04-19T02:16:02.659Z,98362.44
2023-04-19T02:17:04.480Z,98353.13
2023-04-19T02:18:07.115Z,98356.34
2023-04-19T02:19:09.277Z,98352.31
2023-04-19T02:20:11.221Z,98344.38
2023-04-19T02:21:12.961Z,98349.28
2023-04-19T02:22:14.667Z,98344.69
2023-04-19T02:23:16.374Z,98342.66
2023-04-19T02:24:18.160Z,98344.91
2023-04-19T02:25:20.131Z,98348.00
2023-04-19T02:26:22.289Z,98338.91
2023-04-19T02:27:23.992Z,98338.69
2023-04-19T02:28:25.778Z,98342.34
2023-04-19T02:29:27.963Z,98347.19
2023-04-19T02:30:29.665Z,98346.38
2023-04-19T02:31:31.431Z,98342.13
2023-04-19T02:32:33.585Z,98339.47
2023-04-19T02:33:36.555Z,98340.28
2023-04-19T02:34:38.330Z,98343.53
2023-04-19T02:35:40.175Z,98339.84
2023-04-19T02:36:41.882Z,98336.41
2023-04-19T02:37:44.469Z,98337.06
2023-04-19T02:38:46.224Z,98336.63
2023-04-19T02:39:48.060Z,98326.75
2023-04-19T02:40:49.807Z,98346.97
2023-04-19T02:41:51.573Z,98327.78
2023-04-19T02:42:53.295Z,98336.03
2023-04-19T02:43:54.997Z,98336.03
2023-04-19T02:44:56.810Z,98336.03
2023-04-19T02:45:58.704Z,98328.31
2023-04-19T02:47:00.466Z,98328.47
2023-04-19T02:48:02.686Z,98342.28
2023-04-19T02:49:04.910Z,98329.72
2023-04-19T02:50:07.140Z,98332.81
2023-04-19T02:51:08.888Z,98341.69
2023-04-19T02:52:11.061Z,98334.94
2023-04-19T02:53:12.874Z,98330.69
2023-04-19T02:54:14.921Z,98333.31
2023-04-19T02:55:19.944Z,98323.19
2023-04-19T02:56:21.748Z,98327.81
2023-04-19T02:57:23.482Z,98333.09
2023-04-19T02:58:25.216Z,98328.25
2023-04-19T02:59:27.142Z,98330.91
2023-04-19T03:00:29.037Z,98335.75
2023-04-19T03:01:31.364Z,98328.13
2023-04-19T03:02:33.251Z,98327.66
2023-04-19T03:03:35.128Z,98328.47
2023-04-19T03:04:37.112Z,98331.28
2023-04-19T03:05:38.810Z,98334.13
2023-04-19T03:06:42.022Z,98331.28
2023-04-19T03:07:44.631Z,98330.09
2023-04-19T03:08:46.769Z,98339.53
2023-04-19T03:09:48.470Z,98329.44
2023-04-19T03:10:50.150Z,98338.97
2023-04-19T03:11:51.855Z,98342.19
2023-04-19T03:12:53.561Z,98341.03
2023-04-19T03:13:55.318Z,98342.19
2023-04-19T03:14:57.038Z,98341.97
2023-04-19T03:15:58.742Z,98340.56
2023-04-19T03:17:00.632Z,98328.25
2023-04-19T03:18:02.597Z,98334.47
2023-04-19T03:19:04.345Z,98338.72
2023-04-19T03:20:12.351Z,98334.13
2023-04-19T03:21:14.046Z,98331.06
2023-04-19T03:22:15.844Z,98331.50
2023-04-19T03:23:17.553Z,98335.97
2023-04-19T03:24:20.323Z,98339.19
2023-04-19T03:25:22.255Z,98332.16
2023-04-19T03:26:24.017Z,98340.22
2023-04-19T03:27:25.769Z,98332.97
2023-04-19T03:28:27.801Z,98334.34
2023-04-19T03:29:29.621Z,98335.59
2023-04-19T03:30:31.301Z,98338.59
2023-04-19T03:31:33.022Z,98345.84
2023-04-19T03:32:34.790Z,98338.97
2023-04-19T03:33:36.538Z,98342.19
2023-04-19T03:34:38.266Z,98340.34
2023-04-19T03:35:40.008Z,98342.66
2023-04-19T03:36:41.968Z,98345.41
2023-04-19T03:37:43.889Z,98343.56
2023-04-19T03:38:45.835Z,98343.78
2023-04-19T03:39:47.622Z,98336.34
2023-04-19T03:40:49.336Z,98346.31
2023-04-19T03:41:51.068Z,98343.78
2023-04-19T03:42:52.843Z,98342.66
2023-04-19T03:43:54.653Z,98346.09
2023-04-19T03:44:57.011Z,98342.06
2023-04-19T03:45:58.733Z,98348.38
2023-04-19T03:47:00.566Z,98341.25
2023-04-19T03:48:03.151Z,98334.19
2023-04-19T03:49:05.084Z,98345.13
2023-04-19T03:50:07.702Z,98335.22
2023-04-19T03:51:09.447Z,98324.53
2023-04-19T03:52:11.314Z,98334.56
2023-04-19T03:53:12.999Z,98329.72
2023-04-19T03:54:14.842Z,98346.53
2023-04-19T03:55:16.890Z,98342.28
2023-04-19T03:56:18.664Z,98333.41
2023-04-19T03:57:20.457Z,98339.47
2023-04-19T03:58:22.798Z,98338.25
2023-04-19T03:59:24.543Z,98338.91
2023-04-19T04:00:27.528Z,98336.94
2023-04-19T04:01:29.271Z,98338.69
2023-04-19T04:02:31.512Z,98342.94
2023-04-19T04:03:33.870Z,98340.28
2023-04-19T04:04:36.206Z,98345.56
2023-04-19T04:05:38.223Z,98343.75
2023-04-19T04:06:40.041Z,98342.72
2023-04-19T04:07:42.229Z,98351.28
2023-04-19T04:08:43.980Z,98344.53
2023-04-19T04:09:47.772Z,98337.06
2023-04-19T04:10:49.534Z,98345.13
2023-04-19T04:11:51.283Z,98340.66
2023-04-19T04:12:53.043Z,98352.84
2023-04-19T04:13:56.369Z,98344.69
2023-04-19T04:14:58.079Z,98349.53
2023-04-19T04:15:59.962Z,98351.13
2023-04-19T04:17:01.687Z,98341.84
2023-04-19T04:18:03.751Z,98347.25
2023-04-19T04:19:05.563Z,98347.47
2023-04-19T04:20:08.901Z,98335.28
2023-04-19T04:21:10.733Z,98340.56
2023-04-19T04:22:12.729Z,98327.59
2023-04-19T04:23:14.569Z,98330.00
2023-04-19T04:24:18.053Z,98338.50
2023-04-19T04:25:22.821Z,98340.13
2023-04-19T04:26:25.527Z,98328.63
2023-04-19T04:27:27.342Z,98337.47
2023-04-19T04:28:29.057Z,98342.09
2023-04-19T04:29:33.125Z,98345.78
2023-04-19T04:30:35.107Z,98342.91
2023-04-19T04:31:36.828Z,98339.69
2023-04-19T04:32:39.030Z,98335.44
2023-04-19T04:33:41.761Z,98346.97
2023-04-19T04:34:43.617Z,98339.38
2023-04-19T04:35:45.383Z,98339.84
2023-04-19T04:36:47.679Z,98344.66
2023-04-19T04:37:49.668Z,98336.72
2023-04-19T04:38:51.697Z,98333.50
2023-04-19T04:39:53.463Z,98340.75
2023-04-19T04:40:56.327Z,98342.38
2023-04-19T04:41:58.182Z,98341.13
2023-04-19T04:43:01.082Z,98348.38
2023-04-19T04:44:12.639Z,98341.03
2023-04-19T04:45:18.248Z,98338.03
2023-04-19T04:46:20.131Z,98344.25
2023-04-19T04:47:22.012Z,98342.63
2023-04-19T04:48:24.517Z,98342.41
2023-04-19T04:49:26.264Z,98340.34
2023-04-19T04:50:27.955Z,98340.94
2023-04-19T04:51:29.656Z,98344.16
2023-04-19T04:52:31.389Z,98349.47
2023-04-19T04:53:33.197Z,98346.94
2023-04-19T04:54:34.888Z,98337.59
2023-04-19T04:55:37.214Z,98344.28
2023-04-19T04:56:38.964Z,98343.84
2023-04-19T04:57:40.880Z,98340.16
2023-04-19T04:58:42.573Z,98349.28
2023-04-19T04:59:44.326Z,98343.63
2023-04-19T05:00:47.185Z,98347.19
2023-04-19T05:01:49.053Z,98351.44
2023-04-19T05:02:50.915Z,98348.34
2023-04-19T05:03:52.787Z,98353.63
2023-04-19T05:04:54.507Z,98344.69
2023-04-19T05:05:56.448Z,98351.13
2023-04-19T05:07:00.261Z,98345.72
2023-04-19T05:08:01.948Z,98355.38
2023-04-19T05:09:03.727Z,98354.59
2023-04-19T05:10:06.406Z,98358.84
2023-04-19T05:11:08.923Z,98368.13
2023-04-19T05:12:10.768Z,98347.91
2023-04-19T05:13:12.510Z,98357.56
2023-04-19T05:14:14.323Z,98358.59
2023-04-19T05:15:16.197Z,98354.25
2023-04-19T05:16:18.048Z,98359.53
2023-04-19T05:17:19.852Z,98362.53
2023-04-19T05:18:21.642Z,98352.19
2023-04-19T05:19:23.489Z,98356.25
2023-04-19T05:20:25.835Z,98354.19
2023-04-19T05:21:27.533Z,98359.00
2023-04-19T05:22:29.282Z,98362.22
2023-04-19T05:23:30.975Z,98362.22
2023-04-19T05:24:32.742Z,98363.63
2023-04-19T05:25:35.140Z,98360.53
2023-04-19T05:26:36.906Z,98360.31
2023-04-19T05:27:38.654Z,98362.94
2023-04-19T05:28:40.621Z,98355.81
2023-04-19T05:29:42.317Z,98362.81
2023-04-19T05:30:44.089Z,98362.03
2023-04-19T05:31:45.868Z,98369.72
2023-04-19T05:32:47.702Z,98363.41
2023-04-19T05:33:49.678Z,98367.66
2023-04-19T05:34:51.469Z,98361.56
2023-04-19T05:35:53.130Z,98366.06
2023-04-19T05:36:54.846Z,98372.75
2023-04-19T05:37:56.560Z,98363.19
2023-04-19T05:38:58.279Z,98375.16
2023-04-19T05:40:00.057Z,98366.97
2023-04-19T05:41:03.175Z,98364.56
2023-04-19T05:42:04.950Z,98368.47
2023-04-19T05:43:06.715Z,98357.09
2023-04-19T05:44:08.502Z,98368.56
2023-04-19T05:45:10.778Z,98365.72
2023-04-19T05:46:12.571Z,98358.00
2023-04-19T05:47:14.323Z,98366.75
2023-04-19T05:48:16.242Z,98365.13
2023-04-19T05:49:17.954Z,98357.44
2023-04-19T05:50:20.677Z,98362.84
2023-04-19T05:51:22.620Z,98351.22
2023-04-19T05:52:24.545Z,98350.06
2023-04-19T05:53:26.263Z,98358.94
2023-04-19T05:54:28.606Z,98366.28
2023-04-19T05:55:31.037Z,98363.41
2023-04-19T05:56:32.733Z,98357.69
2023-04-19T05:57:34.522Z,98360.91
2023-04-19T05:58:36.802Z,98354.22
2023-04-19T05:59:38.604Z,98354.81
2023-04-19T06:00:40.470Z,98360.91
2023-04-19T06:01:42.286Z,98352.47
2023-04-19T06:02:44.773Z,98355.94
2023-04-19T06:03:46.992Z,98359.38
2023-04-19T06:04:49.662Z,98356.50
2023-04-19T06:05:51.637Z,98333.16
2023-04-19T06:06:53.583Z,98360.53
2023-04-19T06:08:02.866Z,98360.69
2023-04-19T06:09:05.060Z,98358.56
2023-04-19T06:10:07.665Z,98360.19
2023-04-19T06:11:20.241Z,98361.22
2023-04-19T06:12:28.828Z,98360.53
2023-04-19T06:13:30.718Z,98359.63
2023-04-19T06:14:32.603Z,98358.81
2023-04-19T06:15:34.301Z,98365.47
2023-04-19T06:16:36.739Z,98358.34
2023-04-19T06:17:38.506Z,98365.25
2023-04-19T06:18:41.132Z,98362.94
2023-04-19T06:19:43.198Z,98366.75
2023-04-19T06:20:44.975Z,98371.56
2023-04-19T06:21:47.782Z,98366.03
2023-04-19T06:22:49.633Z,98360.97
2023-04-19T06:23:51.358Z,98364.56
2023-04-19T06:24:53.100Z,98366.16
2023-04-19T06:25:54.832Z,98362.25
2023-04-19T06:26:57.408Z,98354.75
2023-04-19T06:27:59.236Z,98363.16
2023-04-19T06:29:01.405Z,98355.31
2023-04-19T06:30:03.842Z,98363.34
2023-04-19T06:31:05.647Z,98364.84
2023-04-19T06:32:07.629Z,98368.31
2023-04-19T06:33:09.328Z,98365.44
2023-04-19T06:34:11.268Z,98363.44
2023-04-19T06:35:13.147Z,98363.53
2023-04-19T06:36:15.011Z,98371.34
2023-04-19T06:37:16.733Z,98371.81
2023-04-19T06:38:18.480Z,98373.41
2023-04-19T06:39:20.643Z,98371.25
2023-04-19T06:40:22.452Z,98369.16
2023-04-19T06:41:24.196Z,98369.50
2023-04-19T06:42:26.356Z,98375.16
2023-04-19T06:43:28.031Z,98378.97
2023-04-19T06:44:30.165Z,98374.78
2023-04-19T06:45:32.212Z,98378.34
2023-04-19T06:46:33.932Z,98370.16
2023-04-19T06:47:35.963Z,98373.41
2023-04-19T06:48:38.511Z,98378.78
2023-04-19T06:49:40.196Z,98375.66
2023-04-19T06:50:41.980Z,98378.38
2023-04-19T06:51:43.676Z,98384.38
2023-04-19T06:52:45.499Z,98379.16
2023-04-19T06:53:47.395Z,98382.34
2023-04-19T06:54:50.346Z,98379.00
2023-04-19T06:56:01.100Z,98383.38
2023-04-19T06:57:04.229Z,98386.31
2023-04-19T06:58:07.929Z,98379.59
2023-04-19T06:59:09.860Z,98379.19
2023-04-19T07:00:12.169Z,98375.81
2023-04-19T07:01:13.917Z,98385.53
2023-04-19T07:02:15.755Z,98380.47
2023-04-19T07:03:17.651Z,98380.00
2023-04-19T07:04:20.093Z,98375.00
2023-04-19T07:05:22.192Z,98380.13
2023-04-19T07:06:24.005Z,98379.84
2023-04-19T07:07:26.069Z,98375.28
2023-04-19T07:08:34.864Z,98381.78
2023-04-19T07:09:36.976Z,98373.31
2023-04-19T07:10:38.694Z,98380.81
2023-04-19T07:11:40.442Z,98378.19
2023-04-19T07:12:42.197Z,98382.19
2023-04-19T07:13:43.911Z,98375.00
2023-04-19T07:14:45.705Z,98373.38
2023-04-19T07:15:47.410Z,98380.06
2023-04-19T07:16:50.868Z,98382.28
2023-04-19T07:17:53.513Z,98387.09
2023-04-19T07:18:55.508Z,98381.56
2023-04-19T07:19:58.765Z,98384.28
2023-04-19T07:21:00.453Z,98380.88
2023-04-19T07:22:03.312Z,98379.84
2023-04-19T07:23:05.081Z,98371.59
2023-04-19T07:24:07.445Z,98378.63
2023-04-19T07:25:09.652Z,98376.06
2023-04-19T07:26:11.570Z,98375.63
2023-04-19T07:27:14.616Z,98354.81
2023-04-19T07:28:16.929Z,98384.53
2023-04-19T07:29:19.224Z,98385.88
2023-04-19T07:30:21.301Z,98375.72
2023-04-19T07:31:25.001Z,98380.53
2023-04-19T07:32:26.794Z,98387.47
2023-04-19T07:33:28.840Z,98384.75
2023-04-19T07:34:30.682Z,98390.06
2023-04-19T07:35:32.524Z,98394.31
2023-04-19T07:36:35.647Z,98380.91
2023-04-19T07:37:37.382Z,98388.28
2023-04-19T07:38:40.148Z,98383.41
2023-04-19T07:39:41.870Z,98392.97
2023-04-19T07:40:43.604Z,98381.25
2023-04-19T07:41:45.811Z,98386.06
2023-04-19T07:42:47.504Z,98395.69
2023-04-19T07:43:49.193Z,98393.94
2023-04-19T07:44:51.233Z,98393.94
2023-04-19T07:45:53.407Z,98390.72
2023-04-19T07:46:55.247Z,98389.91
2023-04-19T07:47:57.067Z,98404.84
2023-04-19T07:48:58.846Z,98391.91
2023-04-19T07:50:00.719Z,98396.63
2023-04-19T07:51:12.979Z,98399.28
2023-04-19T07:52:14.704Z,98392.66
2023-04-19T07:53:16.915Z,98391.09
2023-04-19T07:54:20.636Z,98392.66
2023-04-19T07:55:23.170Z,98395.31
2023-04-19T07:56:28.319Z,98396.13
2023-04-19T07:57:30.050Z,98395.06
2023-04-19T07:58:31.748Z,98401.22
2023-04-19T07:59:33.617Z,98391.09
2023-04-19T08:00:36.996Z,98391.84
2023-04-19T08:01:38.780Z,98395.81
2023-04-19T08:02:43.558Z,98393.66
2023-04-19T08:03:47.021Z,98401.69
2023-04-19T08:04:50.018Z,98399.56
2023-04-19T08:05:51.953Z,98397.75
2023-04-19T08:06:53.761Z,98399.59
2023-04-19T08:07:55.848Z,98406.28
2023-04-19T08:08:57.712Z,98398.03
2023-04-19T08:09:59.425Z,98403.38
2023-04-19T08:11:02.600Z,98398.53
2023-04-19T08:12:04.460Z,98397.47
2023-04-19T08:13:06.787Z,98397.47
2023-04-19T08:14:18.611Z,98387.81
2023-04-19T08:16:15.190Z,98400.41
2023-04-19T08:17:55.462Z,98401.75
2023-04-19T08:18:57.176Z,98385.22
2023-04-19T08:19:59.020Z,98399.16
2023-04-19T08:21:00.895Z,98397.03
2023-04-19T08:22:04.702Z,98395.44
2023-04-19T08:23:20.586Z,98389.09
2023-04-19T08:24:24.387Z,98395.03
2023-04-19T08:25:28.620Z,98395.41
2023-04-19T08:26:30.333Z,98394.66
2023-04-19T08:27:32.121Z,98402.22
2023-04-19T08:28:33.822Z,98398.53
2023-04-19T08:29:36.107Z,98392.19
2023-04-19T08:30:37.816Z,98386.34
2023-04-19T08:31:40.018Z,98392.25
2023-04-19T08:32:41.835Z,98393.63
2023-04-19T08:33:43.611Z,98397.34
2023-04-19T08:34:46.419Z,98385.09
2023-04-19T08:35:48.141Z,98390.72
2023-04-19T08:37:00.281Z,98383.75
2023-04-19T08:38:05.526Z,98382.66
2023-04-19T08:39:14.867Z,98384.25
2023-04-19T08:40:23.210Z,98390.41
2023-04-19T08:41:26.760Z,98379.44
2023-04-19T08:42:36.522Z,98388.84
2023-04-19T08:43:40.566Z,98389.66
2023-04-19T08:45:05.724Z,98383.81
2023-04-19T08:46:08.322Z,98383.25
2023-04-19T08:47:15.231Z,98373.66
2023-04-19T08:48:23.853Z,98382.75
2023-04-19T08:49:26.747Z,98381.69
2023-04-19T08:51:35.038Z,98374.19
2023-04-19T08:52:48.193Z,98379.00
2023-04-19T08:53:56.926Z,98372.06
2023-04-19T08:55:00.700Z,98378.47
2023-04-19T08:56:15.103Z,98369.38
2023-04-19T08:57:19.520Z,98379.00
2023-04-19T08:58:30.653Z,98386.72
2023-04-19T08:59:39.587Z,98380.06
2023-04-19T09:00:41.602Z,98380.59
2023-04-19T09:01:44.740Z,98375.25
2023-04-19T09:02:51.516Z,98369.38
2023-04-19T09:04:03.319Z,98383.25
2023-04-19T09:05:09.213Z,98366.09
2023-04-19T09:06:12.454Z,98365.56
2023-04-19T09:07:24.810Z,98369.31
2023-04-19T09:08:27.518Z,98379.72
2023-04-19T09:10:36.519Z,98370.38
2023-04-19T09:11:41.337Z,98373.53
2023-04-19T09:12:43.981Z,98376.97
2023-04-19T09:13:45.772Z,98377.22
2023-04-19T09:15:53.828Z,98375.81
2023-04-19T09:17:12.671Z,98381.41
2023-04-19T09:18:14.531Z,98376.81
2023-04-19T09:19:24.143Z,98373.34
2023-04-19T09:20:37.076Z,98374.69
2023-04-19T09:21:40.143Z,98379.22
2023-04-19T09:22:41.830Z,98369.06
2023-04-19T09:23:48.348Z,98377.56
2023-04-19T09:26:22.003Z,98366.31
2023-04-19T09:27:33.990Z,98378.88
2023-04-19T09:28:36.865Z,98379.16
2023-04-19T09:29:39.168Z,98379.13
2023-04-19T09:30:58.222Z,98376.38
2023-04-19T09:32:02.306Z,98376.50
2023-04-19T09:33:05.096Z,98373.66
2023-04-19T09:34:15.353Z,98378.19
2023-04-19T09:35:17.206Z,98368.00
2023-04-19T09:36:28.884Z,98373.63
2023-04-19T09:37:51.377Z,98372.06
2023-04-19T09:38:52.447Z,98370.41
2023-04-19T09:39:54.202Z,98372.28
2023-04-19T09:41:08.993Z,98369.59
2023-04-19T09:42:10.889Z,98365.34
2023-04-19T09:43:45.292Z,98368.47
2023-04-19T09:45:06.012Z,98371.09
2023-04-19T09:45:57.190Z,98373.28
2023-04-19T09:46:59.028Z,98368.47
2023-04-19T09:48:03.461Z,98362.19
2023-04-19T09:49:21.651Z,98367.81
2023-04-19T09:50:33.698Z,98369.13
2023-04-19T09:51:41.603Z,98364.03
2023-04-19T09:52:45.233Z,98364.22
2023-04-19T09:53:47.058Z,98371.19
2023-04-19T09:54:49.186Z,98363.09
2023-04-19T09:56:01.482Z,98362.28
2023-04-19T09:57:04.801Z,98368.63
2023-04-19T09:58:06.508Z,98356.69
2023-04-19T09:59:20.449Z,98359.78
2023-04-19T10:00:23.495Z,98358.94
2023-04-19T10:01:26.963Z,98360.31
2023-04-19T10:02:34.527Z,98354.44
2023-04-19T10:03:37.328Z,98336.00
2023-04-19T10:04:59.630Z,98356.00
2023-04-19T10:06:10.735Z,98352.25
2023-04-19T10:08:21.506Z,98344.25
2023-04-19T10:09:24.004Z,98343.19
2023-04-19T10:10:40.447Z,98337.94
2023-04-19T10:11:48.252Z,98347.31
2023-04-19T10:14:02.065Z,98346.19
2023-04-19T10:15:05.834Z,98337.88
2023-04-19T10:16:18.112Z,98330.69
2023-04-19T10:17:22.267Z,98330.13
2023-04-19T10:18:25.144Z,98333.81
2023-04-19T10:19:28.320Z,98335.41
2023-04-19T10:20:54.635Z,98336.19
2023-04-19T10:21:56.753Z,98334.59
2023-04-19T10:22:59.429Z,98329.06
2023-04-19T10:24:01.770Z,98330.66
2023-04-19T10:25:15.154Z,98325.22
2023-04-19T10:26:16.861Z,98326.97
2023-04-19T10:27:25.830Z,98330.63
2023-04-19T10:28:31.067Z,98329.69
2023-04-19T10:29:51.787Z,98325.56
2023-04-19T10:31:03.182Z,98325.22
2023-04-19T10:32:13.259Z,98322.69
2023-04-19T10:33:25.488Z,98318.66
2023-04-19T10:34:42.613Z,98320.25
2023-04-19T10:35:45.394Z,98310.88
2023-04-19T10:36:47.167Z,98318.38
2023-04-19T10:38:13.263Z,98317.91
2023-04-19T10:39:41.823Z,98315.53
2023-04-19T10:40:53.063Z,98319.03
2023-04-19T10:41:59.649Z,98314.56
2023-04-19T10:43:13.487Z,98314.59
2023-04-19T10:44:15.242Z,98306.13
2023-04-19T10:45:34.658Z,98311.31
2023-04-19T10:46:40.803Z,98315.94
2023-04-19T10:47:44.900Z,98312.41
2023-04-19T10:48:54.009Z,98316.38
2023-04-19T10:49:55.940Z,98294.81
2023-04-19T10:51:00.964Z,98305.06
2023-04-19T10:52:02.709Z,98294.66
2023-04-19T10:53:43.012Z,98305.69
2023-04-19T10:54:44.783Z,98302.66
2023-04-19T10:55:51.175Z,98300.59
2023-04-19T10:57:10.381Z,98298.28
2023-04-19T10:58:12.163Z,98300.94
2023-04-19T10:59:21.598Z,98304.09
2023-04-19T11:00:25.846Z,98301.06
2023-04-19T11:01:52.867Z,98301.22
2023-04-19T11:02:54.892Z,98295.38
2023-04-19T11:03:57.010Z,98294.19
2023-04-19T11:05:00.693Z,98298.03
2023-04-19T11:06:27.175Z,98295.72
2023-04-19T11:07:29.674Z,98293.84
2023-04-19T11:08:31.831Z,98296.19
2023-04-19T11:09:45.297Z,98292.44
2023-04-19T11:10:47.176Z,98290.78
2023-04-19T11:11:48.910Z,98290.97
2023-04-19T11:12:51.862Z,98300.09
2023-04-19T11:13:58.085Z,98298.22
2023-04-19T11:15:00.551Z,98294.16
2023-04-19T11:16:08.432Z,98294.06
2023-04-19T11:17:31.779Z,98291.63
2023-04-19T11:18:33.694Z,98290.38
2023-04-19T11:19:35.576Z,98291.06
2023-04-19T11:20:37.312Z,98284.97
2023-04-19T11:21:42.123Z,98291.53
2023-04-19T11:22:46.817Z,98285.97
2023-04-19T11:23:50.178Z,98289.63
2023-04-19T11:24:51.868Z,98276.09
2023-04-19T11:25:54.036Z,98281.47
2023-04-19T11:26:57.217Z,98285.06
2023-04-19T11:28:00.552Z,98284.22
2023-04-19T11:29:02.428Z,98287.91
2023-04-19T11:30:10.055Z,98282.72
2023-04-19T11:31:12.000Z,98279.94
2023-04-19T11:32:13.823Z,98277.66
2023-04-19T11:33:15.567Z,98277.91
2023-04-19T11:34:17.603Z,98276.19
2023-04-19T11:35:21.799Z,98271.53
2023-04-19T11:36:23.508Z,98277.28
2023-04-19T11:37:25.234Z,98274.25
2023-04-19T11:38:31.172Z,98280.03
2023-04-19T11:39:33.012Z,98284.84
2023-04-19T11:40:34.826Z,98288.53
2023-04-19T11:41:41.005Z,98280.00
2023-04-19T11:42:43.183Z,98285.59
2023-04-19T11:43:48.656Z,98279.38
2023-04-19T11:44:51.972Z,98279.84
2023-04-19T11:45:54.477Z,98279.84
2023-04-19T11:47:03.401Z,98281.34
2023-04-19T11:48:06.202Z,98276.09
2023-04-19T11:49:08.164Z,98283.50
2023-04-19T11:50:42.037Z,98291.84
2023-04-19T11:51:43.821Z,98282.16
2023-04-19T11:52:49.489Z,98276.25
2023-04-19T11:53:51.183Z,98288.47
2023-04-19T11:54:53.865Z,98286.88
2023-04-19T11:55:58.736Z,98289.66
2023-04-19T11:57:03.586Z,98284.00
2023-04-19T11:58:09.901Z,98280.91
2023-04-19T11:59:11.605Z,98286.97
2023-04-19T12:00:14.301Z,98291.22
2023-04-19T12:01:19.886Z,98280.97
2023-04-19T12:02:21.711Z,98287.25
2023-04-19T12:03:26.379Z,98281.56
2023-04-19T12:04:29.044Z,98290.88
2023-04-19T12:05:33.017Z,98287.84
2023-04-19T12:06:34.835Z,98288.13
2023-04-19T12:07:37.049Z,98276.81
2023-04-19T12:08:42.738Z,98291.47
2023-04-19T12:09:49.163Z,98282.56
2023-04-19T12:10:57.738Z,98279.97
2023-04-19T12:11:59.707Z,98289.00
2023-04-19T12:13:02.119Z,98277.44
2023-04-19T12:14:11.978Z,98272.25
2023-04-19T12:15:14.026Z,98280.56
2023-04-19T12:16:27.664Z,98272.66
2023-04-19T12:17:29.526Z,98278.19
2023-04-19T12:18:50.693Z,98282.38
2023-04-19T12:19:52.500Z,98280.44
2023-04-19T12:20:55.111Z,98276.34
2023-04-19T12:22:08.339Z,98279.28
2023-04-19T12:23:13.970Z,98271.34
2023-04-19T12:24:16.689Z,98270.09
2023-04-19T12:25:18.697Z,98274.66
2023-04-19T12:26:20.404Z,98273.91
2023-04-19T12:27:22.258Z,98272.38
2023-04-19T12:28:24.004Z,98264.97
2023-04-19T12:29:27.578Z,98267.16
2023-04-19T12:30:29.608Z,98270.31
2023-04-19T12:31:34.629Z,98273.19
2023-04-19T12:32:36.425Z,98276.44
2023-04-19T12:33:38.194Z,98266.56
2023-04-19T12:34:39.919Z,98279.13
2023-04-19T12:35:43.113Z,98277.75
2023-04-19T12:36:44.932Z,98287.56